Time;durP1;ratioP1;P1;durP2;ratioP2;P2;SDS_P1;SDS_P2;PMS_P1;PMS_P2;Temp;Humidity;BMP_temperature;BMP_pressure;BME280_temperature;BME280_humidity;BME280_pressure;Samples;Min_cycle;Max_cycle;Signal;HPM_P1;HPM_P2
2022/03/07 00:00:08;;;;;;;40.22;22.95;;;;;;;-144.47;100.00;61586.06;5024862;28;20477;-78
2022/03/07 00:02:33;;;;;;;40.47;22.10;;;;;;;-144.47;100.00;61586.06;5003836;28;20470;-77
2022/03/07 00:04:59;;;;;;;38.25;21.92;;;;;;;-144.47;100.00;61586.06;5023216;28;20040;-78
2022/03/07 00:07:24;;;;;;;35.90;21.52;;;;;;;-144.47;100.00;61586.06;5024717;28;20044;-77
2022/03/07 00:09:50;;;;;;;38.30;21.63;;;;;;;-144.47;100.00;61586.06;5028013;28;20455;-77
2022/03/07 00:12:15;;;;;;;37.47;22.30;;;;;;;-144.47;100.00;61586.06;5031814;28;20085;-77
2022/03/07 00:14:40;;;;;;;42.65;23.13;;;;;;;-144.47;100.00;61586.06;5021012;28;20455;-77
2022/03/07 00:17:06;;;;;;;42.97;24.80;;;;;;;-144.47;100.00;61586.06;5026474;28;20084;-77
2022/03/07 00:19:31;;;;;;;43.92;23.92;;;;;;;-144.47;100.00;61586.06;5026191;28;20022;-77
2022/03/07 00:21:57;;;;;;;45.25;24.45;;;;;;;-144.47;100.00;61586.06;5024638;28;20490;-77
2022/03/07 00:24:22;;;;;;;43.47;23.48;;;;;;;-144.47;100.00;61586.06;5028976;28;20120;-77
2022/03/07 00:26:48;;;;;;;41.33;23.58;;;;;;;-144.47;100.00;61586.06;5043197;28;20136;-78
2022/03/07 00:29:13;;;;;;;40.13;23.08;;;;;;;-144.47;100.00;61586.06;5041011;28;20074;-77
2022/03/07 00:31:39;;;;;;;37.55;22.52;;;;;;;-144.47;100.00;61586.06;5031556;28;20044;-76
2022/03/07 00:34:05;;;;;;;36.58;20.98;;;;;;;-144.47;100.00;61586.06;5028964;28;20023;-75
2022/03/07 00:36:31;;;;;;;35.75;21.20;;;;;;;-144.47;100.00;61586.06;5014206;28;20153;-77
2022/03/07 00:38:57;;;;;;;34.80;21.17;;;;;;;-144.47;100.00;61586.06;5018144;28;20108;-78
2022/03/07 00:41:22;;;;;;;35.10;20.52;;;;;;;-144.47;100.00;61586.06;5020190;28;20405;-76
2022/03/07 00:43:48;;;;;;;40.30;21.80;;;;;;;-144.47;100.00;61586.06;5023421;28;20048;-76
2022/03/07 00:46:15;;;;;;;38.45;21.02;;;;;;;-144.47;100.00;61586.06;5021016;28;20044;-76
2022/03/07 00:48:40;;;;;;;37.05;21.10;;;;;;;-144.47;100.00;61586.06;5024432;28;20098;-77
2022/03/07 00:51:06;;;;;;;34.42;21.30;;;;;;;-144.47;100.00;61586.06;5025176;28;20065;-76
2022/03/07 00:53:31;;;;;;;42.33;23.92;;;;;;;-144.47;100.00;61586.06;5027243;28;20060;-78
2022/03/07 00:55:57;;;;;;;40.53;23.20;;;;;;;-144.47;100.00;61586.06;5024942;28;20405;-78
2022/03/07 00:58:23;;;;;;;46.00;24.38;;;;;;;-144.47;100.00;61586.06;5023754;28;20068;-77
2022/03/07 01:00:50;;;;;;;41.05;24.30;;;;;;;-144.47;100.00;61586.06;5025942;28;20125;-77
2022/03/07 01:03:17;;;;;;;42.17;23.40;;;;;;;-144.47;100.00;61586.06;5041377;28;20116;-77
2022/03/07 01:05:44;;;;;;;41.47;21.60;;;;;;;-144.47;100.00;61586.06;5024643;28;20428;-77
2022/03/07 01:08:10;;;;;;;37.40;21.88;;;;;;;-144.47;100.00;61586.06;5025563;28;20022;-77
2022/03/07 01:10:36;;;;;;;42.33;22.42;;;;;;;-144.47;100.00;61586.06;5022534;28;20034;-76
2022/03/07 01:13:02;;;;;;;39.05;21.90;;;;;;;-144.47;100.00;61586.06;5021162;28;20049;-76
2022/03/07 01:15:28;;;;;;;39.50;22.52;;;;;;;-144.47;100.00;61586.06;5027920;28;20036;-77
2022/03/07 01:17:54;;;;;;;43.35;23.23;;;;;;;-144.47;100.00;61586.06;5022181;28;20029;-77
2022/03/07 01:20:21;;;;;;;44.40;22.77;;;;;;;-144.47;100.00;61586.06;5021642;28;20509;-76
2022/03/07 01:22:47;;;;;;;44.47;24.77;;;;;;;-144.47;100.00;61586.06;5023589;28;20053;-76
2022/03/07 01:25:12;;;;;;;40.97;23.52;;;;;;;-144.47;100.00;61586.06;5021077;28;20052;-77
2022/03/07 01:27:38;;;;;;;36.05;22.17;;;;;;;-144.47;100.00;61586.06;5021359;28;20030;-76
2022/03/07 01:30:05;;;;;;;35.60;21.65;;;;;;;-144.47;100.00;61586.06;5026679;28;20028;-77
2022/03/07 01:32:30;;;;;;;36.70;22.00;;;;;;;-144.47;100.00;61586.06;5035544;28;20026;-80
2022/03/07 01:34:56;;;;;;;36.05;19.90;;;;;;;-144.47;100.00;61586.06;5039372;28;20094;-76
2022/03/07 01:37:21;;;;;;;35.58;20.15;;;;;;;-144.47;100.00;61586.06;5022346;28;20029;-77
2022/03/07 01:39:48;;;;;;;42.08;20.75;;;;;;;-144.47;100.00;61586.06;5023065;28;20038;-77
2022/03/07 01:42:14;;;;;;;37.55;20.23;;;;;;;-144.47;100.00;61586.06;5020786;28;20393;-77
2022/03/07 01:44:39;;;;;;;38.00;22.33;;;;;;;-144.47;100.00;61586.06;5019729;28;20117;-78
2022/03/07 01:47:06;;;;;;;38.63;21.63;;;;;;;-144.47;100.00;61586.06;5038367;28;20037;-77
2022/03/07 01:49:32;;;;;;;36.78;20.77;;;;;;;-144.47;100.00;61586.06;5019245;28;20033;-76
2022/03/07 01:51:58;;;;;;;39.72;21.67;;;;;;;-144.47;100.00;61586.06;5019384;28;20054;-78
2022/03/07 01:54:25;;;;;;;32.92;20.08;;;;;;;-144.47;100.00;61586.06;5018925;28;20034;-78
2022/03/07 01:56:54;;;;;;;40.85;21.90;;;;;;;-144.47;100.00;61586.06;5019926;28;20488;-77
2022/03/07 01:59:23;;;;;;;37.67;22.02;;;;;;;-144.47;100.00;61586.06;5003001;28;20147;-78
2022/03/07 02:01:50;;;;;;;39.20;22.52;;;;;;;-144.47;100.00;61586.06;5021316;28;20060;-79
2022/03/07 02:04:16;;;;;;;37.55;21.52;;;;;;;-144.47;100.00;61586.06;5019206;28;20508;-77
2022/03/07 02:06:44;;;;;;;36.90;20.40;;;;;;;-144.47;100.00;61586.06;5037956;28;20025;-77
2022/03/07 02:09:11;;;;;;;38.40;19.83;;;;;;;-144.47;100.00;61586.06;5016250;28;20108;-77
2022/03/07 02:11:41;;;;;;;;;;;;;;;-144.47;100.00;61586.06;5022831;28;20129;-77
2022/03/07 02:14:15;;;;;;;32.08;19.52;;;;;;;-144.47;100.00;61586.06;5015719;28;19927;-77
2022/03/07 02:16:43;;;;;;;35.25;20.35;;;;;;;-144.47;100.00;61586.06;5036341;28;20456;-76
2022/03/07 02:19:09;;;;;;;36.88;19.73;;;;;;;-144.47;100.00;61586.06;5019217;28;20095;-76
2022/03/07 02:21:35;;;;;;;39.60;21.27;;;;;;;-144.47;100.00;61586.06;5022800;28;20389;-77
2022/03/07 02:24:16;;;;;;;38.80;20.95;;;;;;;-144.47;100.00;61586.06;5019565;28;20038;-76
2022/03/07 02:27:04;;;;;;;36.30;20.30;;;;;;;-144.47;100.00;61586.06;5040711;28;20091;-75
2022/03/07 02:29:30;;;;;;;32.60;20.13;;;;;;;-144.47;100.00;61586.06;5017062;28;20034;-77
2022/03/07 02:32:01;;;;;;;42.30;21.23;;;;;;;-144.47;100.00;61586.06;5027858;28;20466;-76
2022/03/07 02:34:31;;;;;;;37.75;20.77;;;;;;;-144.47;100.00;61586.06;5022660;28;20504;-77
2022/03/07 02:36:57;;;;;;;34.33;21.00;;;;;;;-144.47;100.00;61586.06;5007219;28;20034;-78
2022/03/07 02:39:25;;;;;;;36.15;21.23;;;;;;;-144.47;100.00;61586.06;5021705;28;20045;-77
2022/03/07 02:41:51;;;;;;;38.33;20.40;;;;;;;-144.47;100.00;61586.06;5038099;28;20053;-76
2022/03/07 02:44:17;;;;;;;39.17;21.05;;;;;;;-144.47;100.00;61586.06;5039392;28;20064;-76
2022/03/07 02:46:43;;;;;;;36.08;21.48;;;;;;;-144.47;100.00;61586.06;5042682;28;20127;-76
2022/03/07 02:49:08;;;;;;;42.65;22.02;;;;;;;-144.47;100.00;61586.06;5034185;28;20036;-77
2022/03/07 02:51:34;;;;;;;35.58;21.80;;;;;;;-144.47;100.00;61586.06;5018409;28;20056;-77
2022/03/07 02:54:00;;;;;;;37.53;20.65;;;;;;;-144.47;100.00;61586.06;5023384;28;20068;-78
2022/03/07 02:56:26;;;;;;;35.78;20.98;;;;;;;-144.47;100.00;61586.06;5019707;28;20048;-78
2022/03/07 02:58:51;;;;;;;40.20;21.13;;;;;;;-144.47;100.00;61586.06;5018032;28;20030;-78
2022/03/07 03:01:17;;;;;;;39.88;20.48;;;;;;;-144.47;100.00;61586.06;5021032;28;20064;-77
2022/03/07 03:03:42;;;;;;;35.78;20.25;;;;;;;-144.47;100.00;61586.06;5019732;28;20454;-77
2022/03/07 03:06:09;;;;;;;34.38;20.40;;;;;;;-144.47;100.00;61586.06;5018875;28;20033;-77
2022/03/07 03:08:35;;;;;;;37.67;20.77;;;;;;;-144.47;100.00;61586.06;5015185;28;20557;-77
2022/03/07 03:11:01;;;;;;;37.58;21.63;;;;;;;-144.47;100.00;61586.06;5021863;28;20128;-76
2022/03/07 03:13:27;;;;;;;37.05;21.35;;;;;;;-144.47;100.00;61586.06;5020220;28;20057;-78
2022/03/07 03:15:54;;;;;;;38.08;22.00;;;;;;;-144.47;100.00;61586.06;5022365;28;20135;-76
2022/03/07 03:18:21;;;;;;;42.10;22.05;;;;;;;-144.47;100.00;61586.06;5024020;28;20033;-77
2022/03/07 03:20:49;;;;;;;39.88;22.00;;;;;;;-144.47;100.00;61586.06;5020180;28;20065;-77
2022/03/07 03:23:15;;;;;;;38.75;22.00;;;;;;;-144.47;100.00;61586.06;5019422;28;20143;-77
2022/03/07 03:25:40;;;;;;;36.20;21.40;;;;;;;-144.47;100.00;61586.06;5022211;28;20032;-78
2022/03/07 03:28:06;;;;;;;38.67;21.08;;;;;;;-144.47;100.00;61586.06;5018888;28;20030;-77
2022/03/07 03:30:32;;;;;;;41.40;22.00;;;;;;;-144.47;100.00;61586.06;5020847;28;20029;-77
2022/03/07 03:32:58;;;;;;;40.15;22.13;;;;;;;-144.47;100.00;61586.06;5018483;28;20082;-76
2022/03/07 03:35:24;;;;;;;39.78;21.83;;;;;;;-144.47;100.00;61586.06;5021159;28;20018;-77
2022/03/07 03:37:49;;;;;;;35.53;21.27;;;;;;;-144.47;100.00;61586.06;5019342;28;20103;-77
2022/03/07 03:40:15;;;;;;;39.55;21.88;;;;;;;-144.47;100.00;61586.06;5019657;28;20026;-76
2022/03/07 03:42:41;;;;;;;35.53;21.27;;;;;;;-144.47;100.00;61586.06;5022415;28;20021;-76
2022/03/07 03:45:10;;;;;;;38.42;20.83;;;;;;;-144.47;100.00;61586.06;5020661;28;20332;-76
2022/03/07 03:47:39;;;;;;;37.28;21.20;;;;;;;-144.47;100.00;61586.06;5014944;28;20470;-77
2022/03/07 03:50:08;;;;;;;39.97;21.13;;;;;;;-144.47;100.00;61586.06;5018489;28;20370;-76
2022/03/07 03:52:34;;;;;;;36.90;22.35;;;;;;;-144.47;100.00;61586.06;5022464;28;20029;-77
2022/03/07 03:55:01;;;;;;;45.80;22.75;;;;;;;-144.47;100.00;61586.06;5018163;28;20185;-77
2022/03/07 03:57:27;;;;;;;36.58;22.05;;;;;;;-144.47;100.00;61586.06;5021283;28;20038;-74
2022/03/07 03:59:52;;;;;;;36.33;21.00;;;;;;;-144.47;100.00;61586.06;5019184;28;20030;-77
2022/03/07 04:02:18;;;;;;;37.67;21.50;;;;;;;-144.47;100.00;61586.06;5024281;28;20067;-77
2022/03/07 04:04:43;;;;;;;39.33;22.17;;;;;;;-144.47;100.00;61586.06;5023488;28;20044;-77
2022/03/07 04:07:08;;;;;;;42.40;23.08;;;;;;;-144.47;100.00;61586.06;5033481;28;20064;-76
2022/03/07 04:09:34;;;;;;;36.25;21.77;;;;;;;-144.47;100.00;61586.06;5039582;28;20078;-77
2022/03/07 04:12:00;;;;;;;37.33;21.30;;;;;;;-144.47;100.00;61586.06;5013907;28;20038;-77
2022/03/07 04:14:26;;;;;;;37.92;21.88;;;;;;;-144.47;100.00;61586.06;5002098;28;20104;-77
2022/03/07 04:16:51;;;;;;;38.90;21.27;;;;;;;-144.47;100.00;61586.06;5006665;28;20537;-78
2022/03/07 04:19:17;;;;;;;38.15;21.55;;;;;;;-144.47;100.00;61586.06;5018948;28;20056;-76
2022/03/07 04:21:43;;;;;;;42.17;22.88;;;;;;;-144.47;100.00;61586.06;5022553;28;20063;-77
2022/03/07 04:24:10;;;;;;;42.63;23.30;;;;;;;-144.47;100.00;61586.06;5019658;28;20030;-76
2022/03/07 04:26:36;;;;;;;39.97;21.70;;;;;;;-144.47;100.00;61586.06;5022820;28;20030;-77
2022/03/07 04:29:07;;;;;;;40.15;21.23;;;;;;;-144.47;100.00;61586.06;5027273;28;20025;-76
2022/03/07 04:31:35;;;;;;;37.63;22.00;;;;;;;-144.47;100.00;61586.06;5028162;28;20413;-78
2022/03/07 04:34:01;;;;;;;37.30;21.83;;;;;;;-144.47;100.00;61586.06;5026491;28;20457;-78
2022/03/07 04:36:26;;;;;;;40.83;22.00;;;;;;;-144.47;100.00;61586.06;5025360;28;20095;-76
2022/03/07 04:38:52;;;;;;;38.83;21.98;;;;;;;-144.47;100.00;61586.06;5023630;28;20034;-78
2022/03/07 04:41:17;;;;;;;43.15;23.05;;;;;;;-144.47;100.00;61586.06;5024192;28;20104;-77
2022/03/07 04:43:43;;;;;;;38.17;21.92;;;;;;;-144.47;100.00;61586.06;5024019;28;20446;-77
2022/03/07 04:46:09;;;;;;;38.10;21.55;;;;;;;-144.47;100.00;61586.06;5032508;28;20034;-77
2022/03/07 04:48:35;;;;;;;40.85;20.67;;;;;;;-144.47;100.00;61586.06;5035543;28;20045;-77
2022/03/07 04:51:02;;;;;;;38.03;21.67;;;;;;;-144.47;100.00;61586.06;5027397;28;20046;-77
2022/03/07 04:53:27;;;;;;;38.17;21.65;;;;;;;-144.47;100.00;61586.06;5025869;28;20026;-76
2022/03/07 04:55:53;;;;;;;38.75;22.55;;;;;;;-144.47;100.00;61586.06;5023753;28;20050;-75
2022/03/07 04:58:19;;;;;;;42.45;21.85;;;;;;;-144.47;100.00;61586.06;5037769;28;20034;-76
2022/03/07 05:00:45;;;;;;;39.65;21.67;;;;;;;-144.47;100.00;61586.06;5023066;28;20461;-77
2022/03/07 05:03:11;;;;;;;39.85;22.17;;;;;;;-144.47;100.00;61586.06;5019535;28;20084;-77
2022/03/07 05:05:37;;;;;;;37.47;20.95;;;;;;;-144.47;100.00;61586.06;5023488;28;20036;-76
2022/03/07 05:08:02;;;;;;;38.40;21.75;;;;;;;-144.47;100.00;61586.06;5024540;28;20033;-78
2022/03/07 05:10:28;;;;;;;41.08;21.60;;;;;;;-144.47;100.00;61586.06;5019377;28;20379;-77
2022/03/07 05:12:53;;;;;;;38.55;21.55;;;;;;;-144.47;100.00;61586.06;5023202;28;20029;-76
2022/03/07 05:15:19;;;;;;;37.33;20.38;;;;;;;-144.47;100.00;61586.06;5024093;28;20029;-77
2022/03/07 05:17:48;;;;;;;41.13;23.98;;;;;;;-144.47;100.00;61586.06;5023510;28;20076;-77
2022/03/07 05:20:15;;;;;;;39.97;22.33;;;;;;;-144.47;100.00;61586.06;5017121;28;20042;-77
2022/03/07 05:22:41;;;;;;;37.67;20.85;;;;;;;-144.47;100.00;61586.06;5022952;28;20037;-77
2022/03/07 05:25:07;;;;;;;37.83;23.17;;;;;;;-144.47;100.00;61586.06;5020600;28;20026;-78
2022/03/07 05:27:33;;;;;;;41.33;22.60;;;;;;;-144.47;100.00;61586.06;5023693;28;20109;-77
2022/03/07 05:29:58;;;;;;;37.22;21.20;;;;;;;-144.47;100.00;61586.06;5020392;28;20461;-77
2022/03/07 05:32:24;;;;;;;37.72;21.83;;;;;;;-144.47;100.00;61586.06;5021932;28;20454;-77
2022/03/07 05:34:49;;;;;;;37.67;21.75;;;;;;;-144.47;100.00;61586.06;5021617;28;20021;-78
2022/03/07 05:37:15;;;;;;;35.80;21.73;;;;;;;-144.47;100.00;61586.06;5020370;28;20113;-77
2022/03/07 05:39:40;;;;;;;38.55;22.05;;;;;;;-144.47;100.00;61586.06;5022011;28;20044;-78
2022/03/07 05:42:06;;;;;;;36.22;20.95;;;;;;;-144.47;100.00;61586.06;5019926;28;20037;-77
2022/03/07 05:44:32;;;;;;;41.90;22.15;;;;;;;-144.47;100.00;61586.06;5023603;28;20029;-76
2022/03/07 05:46:58;;;;;;;40.92;22.85;;;;;;;-144.47;100.00;61586.06;5021907;28;20121;-79
2022/03/07 05:49:23;;;;;;;38.75;21.63;;;;;;;-144.47;100.00;61586.06;5024592;28;20109;-77
2022/03/07 05:51:49;;;;;;;39.53;23.20;;;;;;;-144.47;100.00;61586.06;5020318;28;20493;-79
2022/03/07 05:54:14;;;;;;;41.75;21.48;;;;;;;-144.47;100.00;61586.06;5023554;28;20108;-78
2022/03/07 05:56:40;;;;;;;38.80;21.60;;;;;;;-144.47;100.00;61586.06;5016325;28;20034;-79
2022/03/07 05:59:05;;;;;;;37.58;22.10;;;;;;;-144.47;100.00;61586.06;5024119;28;20101;-78
2022/03/07 06:01:31;;;;;;;41.45;21.50;;;;;;;-144.47;100.00;61586.06;5021353;28;20026;-78
2022/03/07 06:03:56;;;;;;;38.88;22.58;;;;;;;-144.47;100.00;61586.06;5022748;28;20454;-78
2022/03/07 06:06:22;;;;;;;37.17;22.35;;;;;;;-144.47;100.00;61586.06;5021608;28;20032;-78
2022/03/07 06:08:47;;;;;;;41.35;22.25;;;;;;;-144.47;100.00;61586.06;5020600;28;20375;-77
2022/03/07 06:11:13;;;;;;;39.53;22.50;;;;;;;-144.47;100.00;61586.06;5023364;28;20065;-79
2022/03/07 06:13:38;;;;;;;40.20;22.85;;;;;;;-144.47;100.00;61586.06;4668597;28;10000555;-78
2022/03/07 06:16:04;;;;;;;42.40;23.50;;;;;;;-144.47;100.00;61586.06;5020787;28;20036;-78
2022/03/07 06:18:30;;;;;;;41.45;22.95;;;;;;;-144.47;100.00;61586.06;5032412;28;20425;-76
2022/03/07 06:20:56;;;;;;;39.65;22.58;;;;;;;-144.47;100.00;61586.06;5019744;28;20087;-77
2022/03/07 06:23:23;;;;;;;43.47;22.77;;;;;;;-144.47;100.00;61586.06;5019183;28;20133;-78
2022/03/07 06:25:50;;;;;;;37.83;22.42;;;;;;;-144.47;100.00;61586.06;5020280;28;20524;-79
2022/03/07 06:28:16;;;;;;;42.35;24.10;;;;;;;-144.47;100.00;61586.06;5021800;28;20033;-77
2022/03/07 06:30:48;;;;;;;41.58;22.55;;;;;;;-144.47;100.00;61586.06;5022796;28;20030;-78
2022/03/07 06:33:15;;;;;;;39.20;23.45;;;;;;;-144.47;100.00;61586.06;5019444;28;20033;-79
2022/03/07 06:35:41;;;;;;;44.95;23.50;;;;;;;-144.47;100.00;61586.06;5021731;28;20038;-81
2022/03/07 06:38:06;;;;;;;41.42;22.55;;;;;;;-144.47;100.00;61586.06;5018333;28;20026;-79
2022/03/07 06:40:32;;;;;;;44.58;24.58;;;;;;;-144.47;100.00;61586.06;5018617;28;20083;-80
2022/03/07 06:42:58;;;;;;;43.83;23.85;;;;;;;-144.47;100.00;61586.06;5025794;28;20038;-79
2022/03/07 06:45:23;;;;;;;44.45;23.67;;;;;;;-144.47;100.00;61586.06;5019004;28;20042;-79
2022/03/07 06:47:49;;;;;;;66.43;31.70;;;;;;;-144.47;100.00;61586.06;5031257;28;20040;-78
2022/03/07 06:50:16;;;;;;;47.42;24.83;;;;;;;-144.47;100.00;61586.06;5039840;28;20029;-81
2022/03/07 06:52:42;;;;;;;44.92;25.10;;;;;;;-144.47;100.00;61586.06;5044778;28;20069;-79
2022/03/07 06:55:08;;;;;;;44.75;23.60;;;;;;;-144.47;100.00;61586.06;5037310;28;20231;-78
2022/03/07 06:57:34;;;;;;;44.42;24.17;;;;;;;-144.47;100.00;61586.06;5038020;28;20034;-79
2022/03/07 07:00:00;;;;;;;44.70;23.83;;;;;;;-144.47;100.00;61586.06;4339381;28;10000748;-79
2022/03/07 07:02:26;;;;;;;46.88;24.70;;;;;;;-144.47;100.00;61586.06;5046018;28;20061;-77
2022/03/07 07:04:51;;;;;;;38.25;22.95;;;;;;;-144.47;100.00;61586.06;5038362;28;20038;-78
2022/03/07 07:07:17;;;;;;;38.38;22.15;;;;;;;-144.47;100.00;61586.06;5029689;28;20048;-79
2022/03/07 07:09:43;;;;;;;39.30;22.77;;;;;;;-144.47;100.00;61586.06;5023961;28;20092;-80
2022/03/07 07:12:09;;;;;;;37.65;23.08;;;;;;;-144.47;100.00;61586.06;5024157;28;20057;-79
2022/03/07 07:14:36;;;;;;;46.28;21.80;;;;;;;-144.47;100.00;61586.06;5019497;28;20036;-79
2022/03/07 07:17:02;;;;;;;40.05;22.88;;;;;;;-144.47;100.00;61586.06;5019012;28;20029;-79
2022/03/07 07:19:28;;;;;;;37.05;22.67;;;;;;;-144.47;100.00;61586.06;5021362;28;20064;-78
2022/03/07 07:21:53;;;;;;;42.85;25.08;;;;;;;-144.47;100.00;61586.06;5023048;28;20084;-79
2022/03/07 07:24:19;;;;;;;40.47;23.98;;;;;;;-144.47;100.00;61586.06;5022806;28;20440;-79
2022/03/07 07:26:44;;;;;;;44.30;23.92;;;;;;;-144.47;100.00;61586.06;5020672;28;20022;-78
2022/03/07 07:29:10;;;;;;;42.10;24.17;;;;;;;-144.47;100.00;61586.06;5023224;28;20390;-80
2022/03/07 07:31:36;;;;;;;46.97;25.90;;;;;;;-144.47;100.00;61586.06;5023735;28;20037;-78
2022/03/07 07:34:01;;;;;;;42.60;25.02;;;;;;;-144.47;100.00;61586.06;5019030;28;20088;-78
2022/03/07 07:36:27;;;;;;;40.25;23.05;;;;;;;-144.47;100.00;61586.06;5027827;28;20029;-79
2022/03/07 07:38:52;;;;;;;44.67;25.75;;;;;;;-144.47;100.00;61586.06;5018179;28;20034;-80
2022/03/07 07:41:17;;;;;;;44.17;24.83;;;;;;;-144.47;100.00;61586.06;5020306;28;20042;-79
2022/03/07 07:43:43;;;;;;;47.17;24.42;;;;;;;-144.47;100.00;61586.06;5029073;28;20025;-79
2022/03/07 07:46:08;;;;;;;42.63;23.35;;;;;;;-144.47;100.00;61586.06;5042224;28;20028;-78
2022/03/07 07:48:35;;;;;;;39.33;24.02;;;;;;;-144.47;100.00;61586.06;5036782;28;20056;-80
2022/03/07 07:51:00;;;;;;;41.67;24.58;;;;;;;-144.47;100.00;61586.06;5021087;28;20106;-79
2022/03/07 07:53:26;;;;;;;40.70;25.10;;;;;;;-144.47;100.00;61586.06;5015452;28;20141;-76
2022/03/07 07:55:51;;;;;;;40.60;24.15;;;;;;;-144.47;100.00;61586.06;5020194;28;20153;-79
2022/03/07 07:58:17;;;;;;;43.63;25.23;;;;;;;-144.47;100.00;61586.06;5028951;28;20095;-78
2022/03/07 08:00:42;;;;;;;43.65;25.33;;;;;;;-144.47;100.00;61586.06;5027440;28;20030;-79
2022/03/07 08:03:08;;;;;;;44.17;24.42;;;;;;;-144.47;100.00;61586.06;4678603;28;10000254;-78
2022/03/07 08:05:33;;;;;;;42.92;24.80;;;;;;;-144.47;100.00;61586.06;5024978;28;20120;-79
2022/03/07 08:07:59;;;;;;;47.63;27.42;;;;;;;-144.47;100.00;61586.06;5020734;28;20385;-77
2022/03/07 08:10:25;;;;;;;42.35;25.17;;;;;;;-144.47;100.00;61586.06;5020069;28;20044;-80
2022/03/07 08:12:50;;;;;;;45.95;25.40;;;;;;;-144.47;100.00;61586.06;5020365;28;20033;-79
2022/03/07 08:15:16;;;;;;;45.07;25.07;;;;;;;-144.47;100.00;61586.06;4665886;28;9999939;-79
2022/03/07 08:17:46;;;;;;;45.92;25.20;;;;;;;-144.47;100.00;61586.06;5015845;28;20125;-80
2022/03/07 08:20:13;;;;;;;44.30;26.17;;;;;;;-144.47;100.00;61586.06;5019057;28;20132;-80
2022/03/07 08:22:39;;;;;;;40.72;25.08;;;;;;;-144.47;100.00;61586.06;5020466;28;20033;-79
2022/03/07 08:25:05;;;;;;;44.22;25.70;;;;;;;-144.47;100.00;61586.06;5017094;28;20076;-80
2022/03/07 08:27:32;;;;;;;45.35;27.23;;;;;;;-144.47;100.00;61586.06;5016132;28;20052;-79
2022/03/07 08:29:58;;;;;;;53.95;26.27;;;;;;;-144.47;100.00;61586.06;5026476;28;20363;-81
2022/03/07 08:32:25;;;;;;;46.50;25.90;;;;;;;-144.47;100.00;61586.06;5015423;28;20048;-79
2022/03/07 08:34:52;;;;;;;49.28;27.35;;;;;;;-144.47;100.00;61586.06;5023136;28;20548;-80
2022/03/07 08:37:18;;;;;;;48.50;27.58;;;;;;;-144.47;100.00;61586.06;5025353;28;20083;-81
2022/03/07 08:39:44;;;;;;;44.78;25.67;;;;;;;-144.47;100.00;61586.06;5029311;28;20042;-79
2022/03/07 08:42:09;;;;;;;46.50;26.17;;;;;;;-144.47;100.00;61586.06;5022532;28;20398;-81
2022/03/07 08:44:35;;;;;;;47.63;25.58;;;;;;;-144.47;100.00;61586.06;5023359;28;20041;-81
2022/03/07 08:47:00;;;;;;;44.90;26.08;;;;;;;-144.47;100.00;61586.06;5029396;28;20139;-79
2022/03/07 08:49:26;;;;;;;47.42;26.73;;;;;;;-144.47;100.00;61586.06;5020898;28;20030;-76
2022/03/07 08:51:52;;;;;;;43.13;26.27;;;;;;;-144.47;100.00;61586.06;5027698;28;20046;-77
2022/03/07 08:54:18;;;;;;;46.88;27.98;;;;;;;-144.47;100.00;61586.06;5026955;28;20033;-77
2022/03/07 08:56:44;;;;;;;44.97;25.85;;;;;;;-144.47;100.00;61586.06;5023742;28;20030;-76
2022/03/07 08:59:10;;;;;;;49.00;26.67;;;;;;;-144.47;100.00;61586.06;5020626;28;20202;-77
2022/03/07 09:01:36;;;;;;;45.80;27.33;;;;;;;-144.47;100.00;61586.06;5022035;28;20065;-76
2022/03/07 09:04:02;;;;;;;46.20;27.70;;;;;;;-144.47;100.00;61586.06;5022928;28;20136;-76
2022/03/07 09:06:28;;;;;;;45.55;25.33;;;;;;;-144.47;100.00;61586.06;5029410;28;20032;-78
2022/03/07 09:08:54;;;;;;;48.25;26.98;;;;;;;-144.47;100.00;61586.06;5015430;28;20180;-80
2022/03/07 09:11:20;;;;;;;44.63;27.30;;;;;;;-144.47;100.00;61586.06;5021937;28;20076;-79
2022/03/07 09:13:46;;;;;;;48.53;27.27;;;;;;;-144.47;100.00;61586.06;5032389;28;20029;-80
2022/03/07 09:16:14;;;;;;;44.15;27.88;;;;;;;-144.47;100.00;61586.06;5025425;28;20042;-77
2022/03/07 09:18:40;;;;;;;44.00;28.40;;;;;;;-144.47;100.00;61586.06;5021002;28;20026;-79
2022/03/07 09:21:06;;;;;;;47.53;29.10;;;;;;;-144.47;100.00;61586.06;5026121;28;20038;-79
2022/03/07 09:23:37;;;;;;;50.00;28.02;;;;;;;-144.47;100.00;61586.06;5030458;28;20030;-79
2022/03/07 09:26:03;;;;;;;43.15;25.95;;;;;;;-144.47;100.00;61586.06;5038586;28;20065;-81
2022/03/07 09:28:28;;;;;;;43.30;26.23;;;;;;;-144.47;100.00;61586.06;5035006;28;20034;-79
2022/03/07 09:30:54;;;;;;;42.13;25.08;;;;;;;-144.47;100.00;61586.06;5036990;28;20044;-78
2022/03/07 09:33:19;;;;;;;41.45;25.65;;;;;;;-144.47;100.00;61586.06;5039471;28;20030;-78
2022/03/07 09:35:45;;;;;;;39.65;24.63;;;;;;;-144.47;100.00;61586.06;5034387;28;20044;-78
2022/03/07 09:38:10;;;;;;;42.53;24.70;;;;;;;-144.47;100.00;61586.06;5039244;28;20041;-77
2022/03/07 09:40:36;;;;;;;43.92;26.38;;;;;;;-144.47;100.00;61586.06;5036661;28;20474;-79
2022/03/07 09:43:02;;;;;;;40.35;24.42;;;;;;;-144.47;100.00;61586.06;5043269;28;20089;-80
2022/03/07 09:45:28;;;;;;;40.05;24.92;;;;;;;-144.47;100.00;61586.06;5040467;28;20029;-80
2022/03/07 09:47:53;;;;;;;41.05;24.92;;;;;;;-144.47;100.00;61586.06;5040694;28;20037;-80
2022/03/07 09:50:19;;;;;;;37.35;22.77;;;;;;;-144.47;100.00;61586.06;5033475;28;20057;-78
2022/03/07 09:52:45;;;;;;;40.53;24.77;;;;;;;-144.47;100.00;61586.06;5034724;28;20033;-78
2022/03/07 09:55:16;;;;;;;35.00;22.77;;;;;;;-144.47;100.00;61586.06;5049436;28;20061;-80
2022/03/07 09:57:42;;;;;;;;;;;;;;;-144.47;100.00;61586.06;5026403;28;20037;-79
2022/03/07 10:00:08;;;;;;;38.50;21.88;;;;;;;-144.47;100.00;61586.06;5025381;28;19963;-79
2022/03/07 10:02:34;;;;;;;35.58;21.35;;;;;;;-144.47;100.00;61586.06;5021303;28;20056;-78
2022/03/07 10:05:01;;;;;;;40.05;22.80;;;;;;;-144.47;100.00;61586.06;5023711;28;20478;-77
2022/03/07 10:07:27;;;;;;;34.30;22.50;;;;;;;-144.47;100.00;61586.06;5022182;28;20481;-78
2022/03/07 10:10:22;;;;;;;35.92;21.55;;;;;;;-144.47;100.00;61586.06;5018936;28;20038;-78
2022/03/07 10:12:51;;;;;;;34.08;21.20;;;;;;;-144.47;100.00;61586.06;5020073;28;20233;-76
2022/03/07 10:15:18;;;;;;;38.83;21.35;;;;;;;-144.47;100.00;61586.06;5020166;28;20393;-77
2022/03/07 10:17:57;;;;;;;32.67;20.25;;;;;;;-144.47;100.00;61586.06;4778404;28;10000690;-78
2022/03/07 10:20:26;;;;;;;33.85;20.98;;;;;;;-144.47;100.00;61586.06;5017932;28;20575;-76
2022/03/07 10:22:54;;;;;;;34.33;20.60;;;;;;;-144.47;100.00;61586.06;5014094;28;20054;-78
2022/03/07 10:25:38;;;;;;;31.20;20.45;;;;;;;-144.47;100.00;61586.06;5015952;28;20487;-78
2022/03/07 10:28:05;;;;;;;32.22;19.67;;;;;;;-144.47;100.00;61586.06;4322626;28;10000684;-79
2022/03/07 10:30:32;;;;;;;29.10;20.08;;;;;;;-144.47;100.00;61586.06;5016176;28;20109;-79
2022/03/07 10:33:09;;;;;;;35.30;21.50;;;;;;;-144.47;100.00;61586.06;5020291;28;20030;-81
2022/03/07 10:35:41;;;;;;;33.13;20.17;;;;;;;-144.47;100.00;61586.06;5023113;28;20413;-78
2022/03/07 10:38:13;;;;;;;28.80;18.55;;;;;;;-144.47;100.00;61586.06;5020104;28;20048;-80
2022/03/07 10:40:48;;;;;;;30.63;19.33;;;;;;;-144.47;100.00;61586.06;5018531;28;20030;-79
2022/03/07 10:43:14;;;;;;;29.88;19.20;;;;;;;-144.47;100.00;61586.06;5020956;28;20539;-77
2022/03/07 10:45:55;;;;;;;28.83;18.60;;;;;;;-144.47;100.00;61586.06;5027939;28;20022;-79
2022/03/07 10:48:21;;;;;;;27.42;18.85;;;;;;;-144.47;100.00;61586.06;5029356;28;20037;-78
2022/03/07 10:50:51;;;;;;;30.17;19.05;;;;;;;-144.47;100.00;61586.06;5026712;28;20045;-79